createdAt,value
2023-04-19T00:00:39.778Z,20.20
2023-04-19T00:03:08.605Z,19.78
2023-04-19T00:05:38.420Z,20.01
2023-04-19T00:08:07.301Z,19.28
2023-04-19T00:10:36.077Z,19.44
2023-04-19T00:13:04.274Z,19.89
2023-04-19T00:15:35.106Z,18.90
2023-04-19T00:18:03.759Z,20.12
2023-04-19T00:20:31.668Z,19.31
2023-04-19T00:22:59.629Z,20.43
2023-04-19T00:25:28.457Z,20.17
2023-04-19T00:27:56.454Z,18.95
2023-04-19T00:30:24.609Z,19.59
2023-04-19T00:32:54.771Z,20.56
2023-04-19T00:35:25.941Z,20.03
2023-04-19T00:37:54.093Z,20.13
2023-04-19T00:40:22.185Z,19.63
2023-04-19T00:42:50.210Z,18.82
2023-04-19T00:45:18.762Z,18.91
2023-04-19T00:47:46.828Z,18.31
2023-04-19T00:50:16.857Z,18.52
2023-04-19T00:52:45.977Z,18.66
2023-04-19T00:55:14.630Z,18.31
2023-04-19T00:57:42.754Z,17.91
2023-04-19T01:00:11.992Z,18.13
2023-04-19T01:02:40.137Z,17.65
2023-04-19T01:05:08.843Z,17.95
2023-04-19T01:07:38.499Z,18.18
2023-04-19T01:10:07.228Z,17.77
2023-04-19T01:12:35.450Z,17.93
2023-04-19T01:15:05.338Z,17.73
2023-04-19T01:17:34.207Z,18.08
2023-04-19T01:20:03.347Z,18.46
2023-04-19T01:22:33.301Z,18.49
2023-04-19T01:25:01.770Z,18.68
2023-04-19T01:27:29.648Z,18.63
2023-04-19T01:29:58.788Z,18.26
2023-04-19T01:32:28.112Z,18.34
2023-04-19T01:34:57.463Z,17.80
2023-04-19T01:37:25.465Z,18.13
2023-04-19T01:39:56.333Z,17.61
2023-04-19T01:42:24.388Z,17.43
2023-04-19T01:44:52.392Z,18.55
2023-04-19T01:47:21.072Z,17.77
2023-04-19T01:49:49.106Z,18.29
2023-04-19T01:52:18.766Z,17.97
2023-04-19T01:54:46.815Z,17.73
2023-04-19T01:57:18.824Z,18.58
2023-04-19T01:59:47.405Z,18.25
2023-04-19T02:02:15.735Z,18.37
2023-04-19T02:04:44.174Z,17.56
2023-04-19T02:07:12.437Z,18.12
2023-04-19T02:09:40.631Z,18.13
2023-04-19T02:12:08.891Z,17.13
2023-04-19T02:14:38.213Z,17.36
2023-04-19T02:17:06.035Z,17.98
2023-04-19T02:19:34.022Z,17.52
2023-04-19T02:22:01.989Z,18.07
2023-04-19T02:24:29.967Z,17.41
2023-04-19T02:26:58.405Z,16.99
2023-04-19T02:29:26.453Z,17.64
2023-04-19T02:31:55.940Z,17.33
2023-04-19T02:34:23.980Z,17.20
2023-04-19T02:36:53.699Z,17.51
2023-04-19T02:39:21.765Z,17.32
2023-04-19T02:41:50.343Z,17.61
2023-04-19T02:44:18.606Z,17.99
2023-04-19T02:46:50.146Z,17.71
2023-04-19T02:49:20.179Z,18.04
2023-04-19T02:51:48.854Z,17.28
2023-04-19T02:54:16.883Z,17.89
2023-04-19T02:56:46.362Z,17.94
2023-04-19T02:59:15.578Z,17.10
2023-04-19T03:01:44.135Z,16.73
2023-04-19T03:04:13.072Z,17.62
2023-04-19T03:06:44.587Z,16.97
2023-04-19T03:09:13.778Z,16.42
2023-04-19T03:11:41.869Z,16.69
2023-04-19T03:14:09.929Z,16.68
2023-04-19T03:16:39.450Z,17.43
2023-04-19T03:19:07.605Z,17.25
2023-04-19T03:21:41.432Z,17.54
2023-04-19T03:24:11.245Z,16.90
2023-04-19T03:26:42.905Z,16.75
2023-04-19T03:29:11.056Z,17.05
2023-04-19T03:31:48.051Z,17.08
2023-04-19T03:34:16.777Z,16.89
2023-04-19T03:36:47.871Z,17.30
2023-04-19T03:39:17.228Z,17.09
2023-04-19T03:41:48.809Z,17.38
2023-04-19T03:44:33.268Z,17.38
2023-04-19T03:47:03.428Z,16.67
2023-04-19T03:49:35.690Z,16.92
2023-04-19T03:52:06.150Z,16.78
2023-04-19T03:54:36.513Z,15.93
2023-04-19T03:57:07.544Z,16.57
2023-04-19T03:59:39.270Z,15.00
2023-04-19T04:02:07.570Z,14.50
2023-04-19T04:04:36.072Z,15.09
2023-04-19T04:07:04.162Z,14.77
2023-04-19T04:09:32.686Z,14.93
2023-04-19T04:12:03.035Z,15.81
2023-04-19T04:14:32.194Z,15.15
2023-04-19T04:17:01.442Z,15.63
2023-04-19T04:19:29.436Z,15.63
2023-04-19T04:21:57.473Z,15.61
2023-04-19T04:24:27.987Z,15.00
2023-04-19T04:27:12.875Z,15.56
2023-04-19T04:29:43.930Z,16.16
2023-04-19T04:32:14.436Z,16.07
2023-04-19T04:34:43.489Z,15.54
2023-04-19T04:37:22.265Z,14.80
2023-04-19T04:39:50.750Z,14.94
2023-04-19T04:42:21.694Z,15.34
2023-04-19T04:44:50.931Z,15.33
2023-04-19T04:47:18.977Z,15.62
2023-04-19T04:49:53.007Z,15.77
2023-04-19T04:52:21.334Z,15.76
2023-04-19T04:55:00.280Z,15.70
2023-04-19T04:57:34.613Z,15.19
2023-04-19T05:00:05.009Z,15.84
2023-04-19T05:02:38.018Z,15.50
2023-04-19T05:05:07.175Z,15.49
2023-04-19T05:07:35.026Z,14.49
2023-04-19T05:10:03.956Z,15.18
2023-04-19T05:12:43.213Z,15.01
2023-04-19T05:15:13.209Z,15.25
2023-04-19T05:17:46.366Z,15.61
2023-04-19T05:20:15.523Z,15.75
2023-04-19T05:22:44.860Z,15.78
2023-04-19T05:25:13.509Z,15.71
2023-04-19T05:27:43.445Z,15.55
2023-04-19T05:30:12.621Z,15.44
2023-04-19T05:32:44.376Z,15.33
2023-04-19T05:35:14.731Z,15.45
2023-04-19T05:37:42.689Z,14.94
2023-04-19T05:40:11.677Z,15.60
2023-04-19T05:42:39.845Z,15.94
2023-04-19T05:45:11.234Z,16.39
2023-04-19T05:47:40.784Z,16.73
2023-04-19T05:50:27.753Z,16.20
2023-04-19T05:53:15.761Z,15.24
2023-04-19T05:55:45.573Z,15.20
2023-04-19T05:58:13.854Z,15.41
2023-04-19T06:00:43.765Z,15.10
2023-04-19T06:03:15.129Z,16.25
2023-04-19T06:05:43.687Z,15.91
2023-04-19T06:08:12.177Z,16.45
2023-04-19T06:10:54.107Z,16.81
2023-04-19T06:13:25.557Z,16.66
2023-04-19T06:15:57.551Z,15.91
2023-04-19T06:18:25.900Z,16.85
2023-04-19T06:20:54.448Z,16.76
2023-04-19T06:23:22.415Z,15.86
2023-04-19T06:25:50.430Z,17.49
2023-04-19T06:28:18.413Z,17.01
2023-04-19T06:30:46.349Z,17.88
2023-04-19T06:33:15.646Z,17.29
2023-04-19T06:35:43.849Z,16.22
2023-04-19T06:38:11.686Z,17.66
2023-04-19T06:40:39.635Z,18.55
2023-04-19T06:43:07.607Z,18.35
2023-04-19T06:45:36.353Z,17.32
2023-04-19T06:48:04.703Z,17.35
2023-04-19T06:50:34.086Z,18.08
2023-04-19T06:53:04.578Z,17.98
2023-04-19T06:55:32.862Z,18.29
2023-04-19T06:58:00.858Z,18.12
2023-04-19T07:00:29.112Z,17.87
2023-04-19T07:02:59.912Z,18.07
2023-04-19T07:05:28.136Z,19.43
2023-04-19T07:07:57.548Z,18.48
2023-04-19T07:10:25.958Z,17.29
2023-04-19T07:12:54.199Z,16.69
2023-04-19T07:15:22.300Z,17.08
2023-04-19T07:17:50.265Z,16.74
2023-04-19T07:20:18.224Z,17.97
2023-04-19T07:22:46.188Z,18.02
2023-04-19T07:25:15.789Z,18.19
2023-04-19T07:27:43.939Z,17.80
2023-04-19T07:30:12.647Z,18.07
2023-04-19T07:32:41.305Z,17.88
2023-04-19T07:35:10.118Z,18.03
2023-04-19T07:37:38.031Z,18.40
2023-04-19T07:40:07.344Z,17.89
2023-04-19T07:42:36.575Z,18.87
2023-04-19T07:45:05.933Z,16.79
2023-04-19T07:47:33.839Z,18.35
2023-04-19T07:50:01.916Z,18.55
2023-04-19T07:52:30.031Z,18.18
2023-04-19T07:54:58.091Z,17.41
2023-04-19T07:57:26.424Z,19.37
2023-04-19T07:59:58.075Z,18.82
2023-04-19T08:02:28.194Z,17.63
2023-04-19T08:04:56.709Z,18.32
2023-04-19T08:07:26.254Z,18.47
2023-04-19T08:09:54.422Z,18.70
2023-04-19T08:12:34.599Z,18.24
2023-04-19T08:15:29.593Z,17.89
2023-04-19T08:17:57.775Z,19.20
2023-04-19T08:20:26.088Z,18.30
2023-04-19T08:22:54.660Z,18.96
2023-04-19T08:25:26.854Z,19.54
2023-04-19T08:27:54.658Z,19.15
2023-04-19T08:30:24.122Z,18.84
2023-04-19T08:32:52.761Z,18.45
2023-04-19T08:35:22.306Z,18.65
2023-04-19T08:37:50.290Z,20.03
2023-04-19T08:40:18.734Z,20.13
2023-04-19T08:42:46.584Z,19.82
2023-04-19T08:45:27.890Z,21.04
2023-04-19T08:48:01.841Z,19.62
2023-04-19T08:50:36.047Z,19.34
2023-04-19T08:55:58.423Z,19.74
2023-04-19T08:58:44.461Z,20.26
2023-04-19T09:04:03.342Z,19.12
2023-04-19T09:06:41.799Z,19.47
2023-04-19T09:11:51.578Z,19.34
2023-04-19T09:14:21.746Z,20.10
2023-04-19T09:16:52.007Z,19.77
2023-04-19T09:19:25.317Z,20.09
2023-04-19T09:21:54.563Z,20.05
2023-04-19T09:27:12.252Z,20.32
2023-04-19T09:29:40.461Z,20.38
2023-04-19T09:32:08.496Z,19.82
2023-04-19T09:34:52.698Z,19.73
2023-04-19T09:37:33.110Z,19.93
2023-04-19T09:40:23.616Z,19.75
2023-04-19T09:48:04.267Z,20.61
2023-04-19T09:50:39.091Z,19.61
2023-04-19T09:53:18.856Z,21.80
2023-04-19T09:55:59.732Z,21.27
2023-04-19T09:58:41.772Z,21.16
2023-04-19T10:01:17.924Z,21.08
2023-04-19T10:03:50.121Z,20.48
2023-04-19T10:08:55.062Z,21.44
2023-04-19T10:11:25.199Z,19.90
2023-04-19T10:13:57.220Z,20.11
2023-04-19T10:16:26.202Z,20.45
2023-04-19T10:18:55.009Z,20.74
2023-04-19T10:21:25.054Z,21.67
2023-04-19T10:23:52.967Z,21.81
2023-04-19T10:26:20.892Z,21.33
2023-04-19T10:28:49.461Z,21.40
2023-04-19T10:31:23.591Z,21.94
2023-04-19T10:33:52.650Z,21.92
2023-04-19T10:36:22.446Z,21.51
2023-04-19T10:38:53.604Z,20.17
2023-04-19T10:41:22.785Z,20.28
2023-04-19T10:44:11.101Z,21.06
2023-04-19T10:46:41.146Z,21.00
2023-04-19T10:49:09.939Z,21.36
2023-04-19T10:51:39.811Z,21.78
2023-04-19T10:54:10.486Z,22.27
2023-04-19T10:57:10.214Z,21.41
2023-04-19T10:59:38.997Z,22.22
2023-04-19T11:02:32.736Z,21.50
2023-04-19T11:05:04.183Z,21.36
2023-04-19T11:07:43.071Z,19.90
2023-04-19T11:10:12.832Z,20.56
2023-04-19T11:12:45.333Z,23.64
2023-04-19T11:15:13.250Z,23.21
2023-04-19T11:17:42.523Z,21.35
2023-04-19T11:20:12.061Z,21.80
2023-04-19T11:22:42.074Z,21.40
2023-04-19T11:25:13.085Z,19.51
2023-04-19T11:27:42.871Z,20.99
2023-04-19T11:30:13.359Z,22.14
2023-04-19T11:32:48.307Z,21.61
2023-04-19T11:35:20.120Z,20.77
2023-04-19T11:37:50.735Z,22.15
2023-04-19T11:40:21.262Z,22.17
2023-04-19T11:42:55.495Z,20.07
2023-04-19T11:45:31.156Z,19.80
2023-04-19T11:48:01.767Z,20.60
2023-04-19T11:50:37.894Z,21.83
2023-04-19T11:53:14.791Z,21.66
2023-04-19T11:55:48.596Z,21.09
2023-04-19T11:58:31.155Z,21.51
2023-04-19T12:01:04.093Z,20.64
2023-04-19T12:03:32.135Z,19.97
2023-04-19T12:06:03.372Z,20.11
2023-04-19T12:08:32.923Z,22.09
2023-04-19T12:11:03.423Z,21.62
2023-04-19T12:13:32.364Z,21.75
2023-04-19T12:16:01.501Z,22.39
2023-04-19T12:18:29.568Z,22.63
2023-04-19T12:20:58.315Z,21.06
2023-04-19T12:23:28.506Z,20.66
2023-04-19T12:25:56.487Z,21.18
2023-04-19T12:28:25.641Z,21.94
2023-04-19T12:30:53.967Z,22.65
2023-04-19T12:33:23.724Z,23.27
2023-04-19T12:35:51.874Z,24.65
2023-04-19T12:38:19.653Z,21.91
2023-04-19T12:40:47.559Z,23.39
2023-04-19T12:43:15.393Z,22.92
2023-04-19T12:45:44.663Z,22.88
2023-04-19T12:48:12.523Z,21.71
2023-04-19T12:50:40.709Z,21.41
2023-04-19T12:53:09.495Z,21.18
2023-04-19T12:55:37.406Z,22.07
2023-04-19T12:58:05.277Z,21.49
2023-04-19T13:00:33.730Z,21.44
2023-04-19T13:03:03.596Z,22.46
2023-04-19T13:05:31.667Z,23.66
2023-04-19T13:08:00.281Z,24.63
2023-04-19T13:10:28.547Z,23.94
2023-04-19T13:12:56.616Z,22.44
2023-04-19T13:15:24.708Z,22.78
2023-04-19T13:17:52.764Z,23.87
2023-04-19T13:20:22.068Z,23.68
2023-04-19T13:22:49.958Z,24.35
2023-04-19T13:25:18.100Z,23.64
2023-04-19T13:27:46.925Z,23.30
2023-04-19T13:30:15.748Z,21.14
2023-04-19T13:32:44.306Z,21.34
2023-04-19T13:35:12.435Z,23.04
2023-04-19T13:37:44.216Z,23.40
2023-04-19T13:40:19.360Z,23.38
2023-04-19T13:42:47.937Z,24.27
2023-04-19T13:45:15.762Z,23.54
2023-04-19T13:47:43.638Z,23.40
2023-04-19T13:50:12.905Z,23.54
2023-04-19T13:52:42.293Z,23.64
2023-04-19T13:55:10.920Z,22.11
2023-04-19T13:57:39.073Z,22.93
2023-04-19T14:00:08.931Z,23.12
2023-04-19T14:02:37.186Z,22.19
2023-04-19T14:05:05.898Z,21.60
2023-04-19T14:07:33.866Z,21.60
2023-04-19T14:10:03.370Z,21.62
2023-04-19T14:12:31.228Z,22.41
2023-04-19T14:14:59.225Z,22.75
2023-04-19T14:17:27.651Z,21.82
2023-04-19T14:19:56.791Z,22.06
2023-04-19T14:22:24.771Z,20.91
2023-04-19T14:24:52.777Z,22.92
2023-04-19T14:27:22.039Z,23.22
2023-04-19T14:29:49.944Z,21.82
2023-04-19T14:32:25.936Z,22.03
2023-04-19T14:34:56.324Z,22.64
2023-04-19T14:37:25.239Z,23.43
2023-04-19T14:39:53.546Z,23.73
2023-04-19T14:42:23.215Z,23.11
2023-04-19T14:44:52.830Z,22.06
2023-04-19T14:47:21.120Z,21.92
2023-04-19T14:49:49.377Z,21.34
2023-04-19T14:52:17.408Z,22.21
2023-04-19T14:54:46.117Z,21.31
2023-04-19T14:57:17.789Z,21.14
2023-04-19T14:59:47.169Z,20.96
2023-04-19T15:02:17.414Z,21.55
2023-04-19T15:04:46.560Z,22.62
2023-04-19T15:07:15.600Z,23.54
2023-04-19T15:09:44.305Z,24.12
2023-04-19T15:12:12.980Z,26.41
2023-04-19T15:14:41.247Z,25.76
2023-04-19T15:17:11.278Z,24.81
2023-04-19T15:19:40.220Z,24.36
2023-04-19T15:22:08.800Z,24.86
2023-04-19T15:24:36.907Z,21.34
2023-04-19T15:27:07.631Z,21.43
2023-04-19T15:29:36.708Z,22.07
2023-04-19T15:32:05.016Z,21.98
2023-04-19T15:34:34.384Z,21.35
2023-04-19T15:37:05.895Z,23.32
2023-04-19T15:39:33.918Z,22.02
2023-04-19T15:42:03.210Z,24.65
2023-04-19T15:44:31.247Z,24.86
2023-04-19T15:46:59.379Z,22.30
2023-04-19T15:49:27.488Z,21.45
2023-04-19T15:51:57.159Z,22.11
2023-04-19T15:54:25.303Z,21.87
2023-04-19T15:56:53.494Z,23.42
2023-04-19T15:59:21.807Z,24.16
2023-04-19T16:01:50.450Z,25.21
2023-04-19T16:04:18.672Z,24.70
2023-04-19T16:06:47.016Z,27.93
2023-04-19T16:09:16.610Z,27.19
2023-04-19T16:11:44.699Z,26.67
2023-04-19T16:14:12.707Z,25.10
2023-04-19T16:16:40.646Z,23.87
2023-04-19T16:19:08.791Z,25.85
2023-04-19T16:21:36.853Z,25.60
2023-04-19T16:24:04.920Z,25.23
2023-04-19T16:26:34.529Z,26.23
2023-04-19T16:29:02.674Z,25.25
2023-04-19T16:31:30.826Z,25.90
2023-04-19T16:33:58.781Z,24.80
2023-04-19T16:36:26.969Z,26.43
2023-04-19T16:38:54.726Z,26.56
2023-04-19T16:41:22.598Z,27.57
2023-04-19T16:43:51.809Z,25.09
2023-04-19T16:46:19.776Z,24.70
2023-04-19T16:48:47.628Z,25.25
2023-04-19T16:51:15.803Z,24.96
2023-04-19T16:53:45.724Z,24.05
2023-04-19T16:56:14.270Z,23.43
2023-04-19T16:58:42.518Z,23.16
2023-04-19T17:01:12.149Z,22.13
2023-04-19T17:03:43.537Z,22.02
2023-04-19T17:06:11.595Z,22.35
2023-04-19T17:08:39.758Z,21.87
2023-04-19T17:11:08.116Z,21.32
2023-04-19T17:13:36.225Z,20.72
2023-04-19T17:16:04.551Z,20.55
2023-04-19T17:18:34.091Z,21.65
2023-04-19T17:21:02.652Z,20.56
2023-04-19T17:23:30.953Z,21.21
2023-04-19T17:25:59.132Z,20.44
2023-04-19T17:28:28.408Z,21.46
2023-04-19T17:30:56.859Z,19.69
2023-04-19T17:33:24.836Z,19.60
2023-04-19T17:35:54.585Z,19.67
2023-04-19T17:38:22.728Z,19.51
2023-04-19T17:40:51.079Z,19.27
2023-04-19T17:43:20.926Z,19.32
2023-04-19T17:45:49.330Z,19.34
2023-04-19T17:48:17.347Z,19.27
2023-04-19T17:50:45.626Z,19.56
2023-04-19T17:53:15.584Z,19.37
2023-04-19T17:55:43.731Z,19.34
2023-04-19T17:58:12.038Z,19.99
2023-04-19T18:00:40.070Z,19.63
2023-04-19T18:03:11.085Z,19.89
2023-04-19T18:05:39.986Z,19.00
2023-04-19T18:08:08.388Z,19.51
2023-04-19T18:10:37.926Z,19.50
2023-04-19T18:13:06.128Z,19.46
2023-04-19T18:15:34.315Z,19.69
2023-04-19T18:18:02.512Z,18.55
2023-04-19T18:20:34.047Z,19.43
2023-04-19T18:23:02.279Z,18.48
2023-04-19T18:25:30.414Z,18.71
2023-04-19T18:27:59.841Z,19.06
2023-04-19T18:30:28.211Z,18.33
2023-04-19T18:32:56.367Z,19.05
2023-04-19T18:35:24.750Z,18.50
2023-04-19T18:37:53.005Z,17.63
2023-04-19T18:40:21.404Z,17.70
2023-04-19T18:42:49.481Z,19.01
2023-04-19T18:45:19.154Z,19.11
2023-04-19T18:47:48.336Z,18.93
2023-04-19T18:50:19.506Z,19.31
2023-04-19T18:52:47.983Z,19.84
2023-04-19T18:55:16.192Z,19.05
2023-04-19T18:57:44.263Z,17.83
2023-04-19T19:00:13.197Z,18.65
2023-04-19T19:02:43.986Z,18.37
2023-04-19T19:05:15.453Z,18.11
2023-04-19T19:07:44.109Z,18.48
2023-04-19T19:10:19.132Z,18.12
2023-04-19T19:12:50.099Z,17.34
2023-04-19T19:15:18.480Z,17.96
2023-04-19T19:17:50.341Z,17.47
2023-04-19T19:20:22.654Z,18.49
2023-04-19T19:22:51.508Z,18.50
2023-04-19T19:25:20.134Z,17.97
2023-04-19T19:28:05.726Z,18.10
2023-04-19T19:30:35.734Z,19.75
2023-04-19T19:33:05.353Z,18.64
2023-04-19T19:35:33.887Z,17.51
2023-04-19T19:38:02.536Z,18.14
2023-04-19T19:40:32.399Z,18.34
2023-04-19T19:43:01.904Z,19.29
2023-04-19T19:45:30.636Z,18.06
2023-04-19T19:48:00.605Z,18.10
2023-04-19T19:53:02.154Z,18.06
2023-04-19T19:55:39.480Z,17.46
2023-04-19T19:58:23.869Z,15.79
2023-04-19T20:00:56.430Z,16.51
2023-04-19T20:03:36.219Z,17.42
2023-04-19T20:08:44.374Z,16.54
2023-04-19T20:11:12.914Z,17.98
2023-04-19T20:13:40.881Z,16.95
2023-04-19T20:16:10.049Z,18.40
2023-04-19T20:18:39.236Z,18.20
2023-04-19T20:21:09.605Z,18.27
2023-04-19T20:23:39.439Z,17.28
2023-04-19T20:26:07.625Z,16.88
2023-04-19T20:28:36.544Z,17.35
2023-04-19T20:31:04.614Z,16.43
2023-04-19T20:33:33.174Z,15.40
2023-04-19T20:36:01.931Z,16.16
2023-04-19T20:38:34.751Z,16.96
2023-04-19T20:41:03.179Z,14.97
2023-04-19T20:43:32.331Z,15.32
2023-04-19T20:46:01.363Z,16.10
2023-04-19T20:48:33.166Z,16.17
2023-04-19T20:51:01.502Z,15.90
2023-04-19T20:53:30.099Z,15.34
2023-04-19T20:55:59.449Z,15.52
2023-04-19T20:58:29.137Z,15.30
2023-04-19T21:00:58.521Z,14.72
2023-04-19T21:03:30.837Z,15.95
2023-04-19T21:06:00.385Z,15.40
2023-04-19T21:08:31.806Z,15.73
2023-04-19T21:11:01.891Z,16.38
2023-04-19T21:13:30.252Z,16.75
2023-04-19T21:15:58.755Z,16.67
2023-04-19T21:18:30.190Z,16.92
2023-04-19T21:21:00.770Z,16.90
2023-04-19T21:23:33.964Z,15.68
2023-04-19T21:26:07.926Z,17.19
2023-04-19T21:28:36.437Z,17.81
2023-04-19T21:31:04.446Z,17.12
2023-04-19T21:33:32.553Z,16.95
2023-04-19T21:36:00.619Z,17.29
2023-04-19T21:38:29.134Z,17.11
2023-04-19T21:40:57.463Z,16.25
2023-04-19T21:43:26.895Z,17.32
2023-04-19T21:45:55.350Z,17.35
2023-04-19T21:48:30.553Z,17.90
2023-04-19T21:50:59.108Z,18.11
2023-04-19T21:53:29.530Z,17.64
2023-04-19T21:55:57.516Z,17.56
2023-04-19T21:58:26.891Z,18.77
2023-04-19T22:00:54.742Z,17.74
2023-04-19T22:03:23.025Z,18.82
2023-04-19T22:05:51.190Z,17.09
2023-04-19T22:08:19.278Z,18.24
2023-04-19T22:11:04.128Z,18.21
2023-04-19T22:13:33.801Z,18.01
2023-04-19T22:16:02.408Z,18.28
2023-04-19T22:18:31.230Z,17.90
2023-04-19T22:20:59.126Z,18.46
2023-04-19T22:23:27.013Z,17.46
2023-04-19T22:25:56.166Z,18.41
2023-04-19T22:28:39.104Z,17.81
2023-04-19T22:31:15.496Z,18.75
2023-04-19T22:33:53.627Z,19.05
2023-04-19T22:36:21.599Z,18.62
2023-04-19T22:38:50.046Z,18.19
2023-04-19T22:41:17.961Z,18.17
2023-04-19T22:43:45.984Z,18.55
2023-04-19T22:46:15.308Z,17.00
2023-04-19T22:48:43.257Z,17.55
2023-04-19T22:51:11.618Z,19.40
2023-04-19T22:53:39.456Z,18.80
2023-04-19T22:56:07.549Z,18.72
2023-04-19T22:58:35.409Z,18.24
2023-04-19T23:01:04.138Z,17.59
2023-04-19T23:03:34.421Z,16.55
2023-04-19T23:06:03.694Z,17.07
2023-04-19T23:08:33.401Z,17.69
2023-04-19T23:11:01.411Z,17.32
2023-04-19T23:13:29.669Z,17.15
2023-04-19T23:15:58.397Z,17.41
2023-04-19T23:18:26.446Z,17.07
2023-04-19T23:21:00.370Z,17.09
2023-04-19T23:23:28.712Z,17.24
2023-04-19T23:25:56.779Z,17.47
2023-04-19T23:28:24.656Z,18.27
2023-04-19T23:30:52.825Z,17.59
2023-04-19T23:33:20.950Z,17.06
2023-04-19T23:35:48.890Z,16.60
2023-04-19T23:38:18.937Z,16.86
2023-04-19T23:40:46.967Z,15.86
2023-04-19T23:43:15.034Z,17.00
2023-04-19T23:45:43.042Z,16.18
2023-04-19T23:48:10.986Z,16.35
2023-04-19T23:50:39.056Z,16.07
2023-04-19T23:53:07.246Z,15.53
2023-04-19T23:55:36.628Z,15.99
2023-04-19T23:58:04.690Z,16.12
